Sharpsburg, NC (27878)

5:25 PM EST on January 23, 2017 (GMT -0500)
Martineer | | Change Station

Elev 132 ft 35.88 °N, 77.80 °W | Updated 5 seconds ago

Partly Cloudy
Partly Cloudy
57.7 °F
Feels Like 57.7 °F
N
2.3
Wind Variable Wind from North
Gusts 2.3 mph

Today
High -- | Low -- °F
--% Chance of Precip.
Yesterday
High -- | Low -- °F
Precip. -- in
Pressure 29.26 in
Visibility 10.0 miles
Clouds Clear
Dew Point 46 °F
Humidity 66%
Rainfall 0.20 in
Snow Depth Not available.
7:17 AM 5:29 PM
Waning Crescent, 16% visible
METAR KRWI 232153Z AUTO 35005KT 10SM CLR 15/08 A2926 RMK AO2 SLP907 T01500083
Pressure 29.26 in
Visibility 10.0 miles
Clouds Clear
Dew Point 46 °F
Humidity 66%
Rainfall 0.20 in
Snow Depth Not available.
7:17 AM 5:29 PM
Waning Crescent, 16% visible
METAR KRWI 232153Z AUTO 35005KT 10SM CLR 15/08 A2926 RMK AO2 SLP907 T01500083

Get Your Daily Forecast Email!

Thanks for signing up!

Be on the lookout for a verification email in your inbox.

You'll start receiving the daily forecast at 8 AM.

×

10-Day Weather Forecast

Almanac

Astronomy

Jan. 23, 2017 Rise Set
Actual Time
Civil Twilight
Nautical Twilight
Astronomical Twilight
Moon
Length of Visible Light
Length of Day
Tomorrow will be .
, % of the Moon is Illuminated

Today's Extremes

State Highs State Lows

Community

WunderPhotos

Upload Photos

1,962,540 photos uploaded!

WunderBlog® & News

Nearby

Air Quality

  Air Quality AQ Index Pollutant
Not available.

Snow Depth

Station Depth Elevation

Earthquake Activity

City Distance Mag. Time & Date
Minimum magnitude displayed is 2.5.

Coastal Water Temperatures

Place Temperature

Stations

Nearby Weather Stations

Station Location Temp. Windchill Dew Point Humidity Wind Precip. Elev Updated Type
                   

Watches & Warnings

There are currently no watches in effect.